sensor_id;sensor_type;location;lat;lon;timestamp;temperature;humidity
60860;DHT22;46694;54.382;9.708;2022-11-20T00:01:51;3.20;99.90
60860;DHT22;46694;54.382;9.708;2022-11-20T00:04:31;3.20;99.90
60860;DHT22;46694;54.382;9.708;2022-11-20T00:07:11;3.20;99.90
60860;DHT22;46694;54.382;9.708;2022-11-20T00:09:50;3.20;99.90
60860;DHT22;46694;54.382;9.708;2022-11-20T00:12:30;3.20;99.90
60860;DHT22;46694;54.382;9.708;2022-11-20T00:15:10;3.20;99.90
60860;DHT22;46694;54.382;9.708;2022-11-20T00:17:49;3.20;99.90
60860;DHT22;46694;54.382;9.708;2022-11-20T00:20:28;3.20;99.90
60860;DHT22;46694;54.382;9.708;2022-11-20T00:23:08;3.20;99.90
60860;DHT22;46694;54.382;9.708;2022-11-20T00:25:48;3.20;99.90
60860;DHT22;46694;54.382;9.708;2022-11-20T00:28:27;3.20;99.90
60860;DHT22;46694;54.382;9.708;2022-11-20T00:31:12;3.20;99.90
60860;DHT22;46694;54.382;9.708;2022-11-20T00:33:53;3.20;99.90
60860;DHT22;46694;54.382;9.708;2022-11-20T00:36:33;3.20;99.90
60860;DHT22;46694;54.382;9.708;2022-11-20T00:39:13;3.10;99.90
60860;DHT22;46694;54.382;9.708;2022-11-20T00:41:52;3.10;99.90
60860;DHT22;46694;54.382;9.708;2022-11-20T00:44:32;3.10;99.90
60860;DHT22;46694;54.382;9.708;2022-11-20T00:47:12;3.10;99.90
60860;DHT22;46694;54.382;9.708;2022-11-20T00:49:51;3.10;99.90
60860;DHT22;46694;54.382;9.708;2022-11-20T00:52:30;3.00;99.90
60860;DHT22;46694;54.382;9.708;2022-11-20T00:55:10;3.00;99.90
60860;DHT22;46694;54.382;9.708;2022-11-20T00:57:50;3.00;99.90
60860;DHT22;46694;54.382;9.708;2022-11-20T01:00:29;3.00;99.90
60860;DHT22;46694;54.382;9.708;2022-11-20T01:03:09;2.90;99.90
60860;DHT22;46694;54.382;9.708;2022-11-20T01:05:48;2.90;99.90
60860;DHT22;46694;54.382;9.708;2022-11-20T01:08:35;2.90;99.90
60860;DHT22;46694;54.382;9.708;2022-11-20T01:11:17;2.90;99.90
60860;DHT22;46694;54.382;9.708;2022-11-20T01:13:59;2.90;99.90
60860;DHT22;46694;54.382;9.708;2022-11-20T01:16:43;2.90;99.90
60860;DHT22;46694;54.382;9.708;2022-11-20T01:19:24;2.80;99.90
60860;DHT22;46694;54.382;9.708;2022-11-20T01:22:04;2.90;99.90
60860;DHT22;46694;54.382;9.708;2022-11-20T01:24:44;2.80;99.90
60860;DHT22;46694;54.382;9.708;2022-11-20T01:27:23;2.80;99.90
60860;DHT22;46694;54.382;9.708;2022-11-20T01:30:03;2.80;99.90
60860;DHT22;46694;54.382;9.708;2022-11-20T01:32:43;2.80;99.90
60860;DHT22;46694;54.382;9.708;2022-11-20T01:35:22;2.80;99.90
60860;DHT22;46694;54.382;9.708;2022-11-20T01:38:02;2.80;99.90
60860;DHT22;46694;54.382;9.708;2022-11-20T01:40:42;2.80;99.90
60860;DHT22;46694;54.382;9.708;2022-11-20T01:43:22;2.80;99.90
60860;DHT22;46694;54.382;9.708;2022-11-20T01:46:18;2.70;99.90
60860;DHT22;46694;54.382;9.708;2022-11-20T01:49:08;2.80;99.90
60860;DHT22;46694;54.382;9.708;2022-11-20T01:51:55;2.70;99.90
60860;DHT22;46694;54.382;9.708;2022-11-20T01:54:41;2.80;99.90
60860;DHT22;46694;54.382;9.708;2022-11-20T01:57:25;2.80;99.90
60860;DHT22;46694;54.382;9.708;2022-11-20T02:00:13;2.70;99.90
60860;DHT22;46694;54.382;9.708;2022-11-20T02:02:57;2.70;99.90
60860;DHT22;46694;54.382;9.708;2022-11-20T02:08:54;2.70;99.90
60860;DHT22;46694;54.382;9.708;2022-11-20T02:11:33;2.70;99.90
60860;DHT22;46694;54.382;9.708;2022-11-20T02:14:14;2.70;99.90
60860;DHT22;46694;54.382;9.708;2022-11-20T02:16:54;2.60;99.90
60860;DHT22;46694;54.382;9.708;2022-11-20T02:19:34;2.70;99.90
60860;DHT22;46694;54.382;9.708;2022-11-20T02:22:29;2.70;99.90
60860;DHT22;46694;54.382;9.708;2022-11-20T02:25:10;2.60;99.90
60860;DHT22;46694;54.382;9.708;2022-11-20T02:27:50;2.70;99.90
60860;DHT22;46694;54.382;9.708;2022-11-20T02:30:30;2.60;99.90
60860;DHT22;46694;54.382;9.708;2022-11-20T02:33:09;2.60;99.90
60860;DHT22;46694;54.382;9.708;2022-11-20T02:35:49;2.60;99.90
60860;DHT22;46694;54.382;9.708;2022-11-20T02:38:29;2.60;99.90
60860;DHT22;46694;54.382;9.708;2022-11-20T02:41:08;2.60;99.90
60860;DHT22;46694;54.382;9.708;2022-11-20T02:43:48;2.60;99.90
60860;DHT22;46694;54.382;9.708;2022-11-20T02:46:28;2.60;99.90
60860;DHT22;46694;54.382;9.708;2022-11-20T02:49:07;2.60;99.90
60860;DHT22;46694;54.382;9.708;2022-11-20T02:51:47;2.60;99.90
60860;DHT22;46694;54.382;9.708;2022-11-20T02:54:26;2.60;99.90
60860;DHT22;46694;54.382;9.708;2022-11-20T02:57:06;2.60;99.90
60860;DHT22;46694;54.382;9.708;2022-11-20T02:59:46;2.60;99.90
60860;DHT22;46694;54.382;9.708;2022-11-20T03:02:27;2.60;99.90
60860;DHT22;46694;54.382;9.708;2022-11-20T03:05:09;2.60;99.90
60860;DHT22;46694;54.382;9.708;2022-11-20T03:07:49;2.60;99.90
60860;DHT22;46694;54.382;9.708;2022-11-20T03:10:28;2.60;99.90
60860;DHT22;46694;54.382;9.708;2022-11-20T03:13:07;2.60;99.90
60860;DHT22;46694;54.382;9.708;2022-11-20T03:15:47;2.60;99.90
60860;DHT22;46694;54.382;9.708;2022-11-20T03:18:28;2.60;99.90
60860;DHT22;46694;54.382;9.708;2022-11-20T03:21:09;2.60;99.90
60860;DHT22;46694;54.382;9.708;2022-11-20T03:23:49;2.70;99.90
60860;DHT22;46694;54.382;9.708;2022-11-20T03:26:29;2.70;99.90
60860;DHT22;46694;54.382;9.708;2022-11-20T03:29:08;2.70;99.90
60860;DHT22;46694;54.382;9.708;2022-11-20T03:31:48;2.70;99.90
60860;DHT22;46694;54.382;9.708;2022-11-20T03:34:28;2.70;99.90
60860;DHT22;46694;54.382;9.708;2022-11-20T03:37:07;2.70;99.90
60860;DHT22;46694;54.382;9.708;2022-11-20T03:39:46;2.70;99.90
60860;DHT22;46694;54.382;9.708;2022-11-20T03:42:26;2.70;99.90
60860;DHT22;46694;54.382;9.708;2022-11-20T03:45:24;2.70;99.90
60860;DHT22;46694;54.382;9.708;2022-11-20T03:48:04;2.70;99.90
60860;DHT22;46694;54.382;9.708;2022-11-20T03:50:44;2.70;99.90
60860;DHT22;46694;54.382;9.708;2022-11-20T03:53:26;2.70;99.90
60860;DHT22;46694;54.382;9.708;2022-11-20T03:56:06;2.70;99.90
60860;DHT22;46694;54.382;9.708;2022-11-20T03:58:46;2.70;99.90
60860;DHT22;46694;54.382;9.708;2022-11-20T04:01:29;2.70;99.90
60860;DHT22;46694;54.382;9.708;2022-11-20T04:04:10;2.70;99.90
60860;DHT22;46694;54.382;9.708;2022-11-20T04:06:49;2.70;99.90
60860;DHT22;46694;54.382;9.708;2022-11-20T04:09:29;2.70;99.90
60860;DHT22;46694;54.382;9.708;2022-11-20T04:12:08;2.70;99.90
60860;DHT22;46694;54.382;9.708;2022-11-20T04:14:48;2.70;99.90
60860;DHT22;46694;54.382;9.708;2022-11-20T04:17:27;2.60;99.90
60860;DHT22;46694;54.382;9.708;2022-11-20T04:20:07;2.60;99.90
60860;DHT22;46694;54.382;9.708;2022-11-20T04:22:47;2.60;99.90
60860;DHT22;46694;54.382;9.708;2022-11-20T04:25:27;2.60;99.90
60860;DHT22;46694;54.382;9.708;2022-11-20T04:28:06;2.50;99.90
60860;DHT22;46694;54.382;9.708;2022-11-20T04:30:46;2.50;99.90
60860;DHT22;46694;54.382;9.708;2022-11-20T04:33:25;2.60;99.90
60860;DHT22;46694;54.382;9.708;2022-11-20T04:36:21;2.60;99.90
60860;DHT22;46694;54.382;9.708;2022-11-20T04:39:05;2.60;99.90
60860;DHT22;46694;54.382;9.708;2022-11-20T04:41:45;2.60;99.90
60860;DHT22;46694;54.382;9.708;2022-11-20T04:44:24;2.60;99.90
60860;DHT22;46694;54.382;9.708;2022-11-20T04:47:04;2.60;99.90
60860;DHT22;46694;54.382;9.708;2022-11-20T04:49:43;2.60;99.90
60860;DHT22;46694;54.382;9.708;2022-11-20T04:52:23;2.60;99.90
60860;DHT22;46694;54.382;9.708;2022-11-20T04:55:02;2.60;99.90
60860;DHT22;46694;54.382;9.708;2022-11-20T04:57:42;2.60;99.90
60860;DHT22;46694;54.382;9.708;2022-11-20T05:00:22;2.60;99.90
60860;DHT22;46694;54.382;9.708;2022-11-20T05:03:02;2.60;99.90
60860;DHT22;46694;54.382;9.708;2022-11-20T05:05:41;2.60;99.90
60860;DHT22;46694;54.382;9.708;2022-11-20T05:08:21;2.60;99.90
60860;DHT22;46694;54.382;9.708;2022-11-20T05:11:02;2.60;99.90
60860;DHT22;46694;54.382;9.708;2022-11-20T05:13:43;2.60;99.90
60860;DHT22;46694;54.382;9.708;2022-11-20T05:16:23;2.60;99.90
60860;DHT22;46694;54.382;9.708;2022-11-20T05:19:03;2.60;99.90
60860;DHT22;46694;54.382;9.708;2022-11-20T05:21:43;2.60;99.90
60860;DHT22;46694;54.382;9.708;2022-11-20T05:24:22;2.60;99.90
60860;DHT22;46694;54.382;9.708;2022-11-20T05:27:02;2.60;99.90
60860;DHT22;46694;54.382;9.708;2022-11-20T05:29:41;2.60;99.90
60860;DHT22;46694;54.382;9.708;2022-11-20T05:32:21;2.60;99.90
60860;DHT22;46694;54.382;9.708;2022-11-20T05:35:04;2.60;99.90
60860;DHT22;46694;54.382;9.708;2022-11-20T05:37:44;2.60;99.90
60860;DHT22;46694;54.382;9.708;2022-11-20T05:40:24;2.60;99.90
60860;DHT22;46694;54.382;9.708;2022-11-20T05:43:03;2.60;99.90
60860;DHT22;46694;54.382;9.708;2022-11-20T05:45:54;2.50;99.90
60860;DHT22;46694;54.382;9.708;2022-11-20T05:48:34;2.60;99.90
60860;DHT22;46694;54.382;9.708;2022-11-20T05:51:18;2.60;99.90
60860;DHT22;46694;54.382;9.708;2022-11-20T05:53:58;2.50;99.90
60860;DHT22;46694;54.382;9.708;2022-11-20T05:56:38;2.50;99.90
60860;DHT22;46694;54.382;9.708;2022-11-20T05:59:17;2.60;99.90
60860;DHT22;46694;54.382;9.708;2022-11-20T06:01:57;2.60;99.90
60860;DHT22;46694;54.382;9.708;2022-11-20T06:04:36;2.50;99.90
60860;DHT22;46694;54.382;9.708;2022-11-20T06:07:16;2.50;99.90
60860;DHT22;46694;54.382;9.708;2022-11-20T06:09:55;2.50;99.90
60860;DHT22;46694;54.382;9.708;2022-11-20T06:12:35;2.50;99.90
60860;DHT22;46694;54.382;9.708;2022-11-20T06:15:14;2.50;99.90
60860;DHT22;46694;54.382;9.708;2022-11-20T06:17:55;2.60;99.90
60860;DHT22;46694;54.382;9.708;2022-11-20T06:20:34;2.50;99.90
60860;DHT22;46694;54.382;9.708;2022-11-20T06:23:14;2.50;99.90
60860;DHT22;46694;54.382;9.708;2022-11-20T06:25:53;2.50;99.90
60860;DHT22;46694;54.382;9.708;2022-11-20T06:28:33;2.50;99.90
60860;DHT22;46694;54.382;9.708;2022-11-20T06:31:15;2.40;99.90
60860;DHT22;46694;54.382;9.708;2022-11-20T06:33:55;2.40;99.90
60860;DHT22;46694;54.382;9.708;2022-11-20T06:36:35;2.40;99.90
60860;DHT22;46694;54.382;9.708;2022-11-20T06:39:14;2.40;99.90
60860;DHT22;46694;54.382;9.708;2022-11-20T06:41:54;2.30;99.90
60860;DHT22;46694;54.382;9.708;2022-11-20T06:44:34;2.30;99.90
60860;DHT22;46694;54.382;9.708;2022-11-20T06:47:13;2.30;99.90
60860;DHT22;46694;54.382;9.708;2022-11-20T06:49:53;2.20;99.90
60860;DHT22;46694;54.382;9.708;2022-11-20T06:52:33;2.20;99.90
60860;DHT22;46694;54.382;9.708;2022-11-20T06:55:13;2.20;99.90
60860;DHT22;46694;54.382;9.708;2022-11-20T06:57:52;2.20;99.90
60860;DHT22;46694;54.382;9.708;2022-11-20T07:00:32;2.20;99.90
60860;DHT22;46694;54.382;9.708;2022-11-20T07:03:12;2.10;99.90
60860;DHT22;46694;54.382;9.708;2022-11-20T07:05:54;2.10;99.90
60860;DHT22;46694;54.382;9.708;2022-11-20T07:08:36;2.10;99.90
60860;DHT22;46694;54.382;9.708;2022-11-20T07:11:16;2.10;99.90
60860;DHT22;46694;54.382;9.708;2022-11-20T07:13:57;2.10;99.90
60860;DHT22;46694;54.382;9.708;2022-11-20T07:16:36;2.10;99.90
60860;DHT22;46694;54.382;9.708;2022-11-20T07:19:16;2.10;99.90
60860;DHT22;46694;54.382;9.708;2022-11-20T07:21:55;2.10;99.90
60860;DHT22;46694;54.382;9.708;2022-11-20T07:24:35;2.10;99.90
60860;DHT22;46694;54.382;9.708;2022-11-20T07:27:14;2.10;99.90
60860;DHT22;46694;54.382;9.708;2022-11-20T07:29:54;2.10;99.90
60860;DHT22;46694;54.382;9.708;2022-11-20T07:32:34;2.10;99.90
60860;DHT22;46694;54.382;9.708;2022-11-20T07:35:14;2.10;99.90
60860;DHT22;46694;54.382;9.708;2022-11-20T07:37:53;2.10;99.90
60860;DHT22;46694;54.382;9.708;2022-11-20T07:40:33;2.10;99.90
60860;DHT22;46694;54.382;9.708;2022-11-20T07:43:12;2.10;99.90
60860;DHT22;46694;54.382;9.708;2022-11-20T07:45:55;2.10;99.90
60860;DHT22;46694;54.382;9.708;2022-11-20T07:48:35;2.10;99.90
60860;DHT22;46694;54.382;9.708;2022-11-20T07:51:15;2.10;99.90
60860;DHT22;46694;54.382;9.708;2022-11-20T07:53:54;2.10;99.90
60860;DHT22;46694;54.382;9.708;2022-11-20T07:56:34;2.10;99.90
60860;DHT22;46694;54.382;9.708;2022-11-20T07:59:14;2.20;99.90
60860;DHT22;46694;54.382;9.708;2022-11-20T08:01:54;2.20;99.90
60860;DHT22;46694;54.382;9.708;2022-11-20T08:04:34;2.20;99.90
60860;DHT22;46694;54.382;9.708;2022-11-20T08:07:14;2.30;99.90
60860;DHT22;46694;54.382;9.708;2022-11-20T08:09:54;2.30;99.90
60860;DHT22;46694;54.382;9.708;2022-11-20T08:12:33;2.30;99.90
60860;DHT22;46694;54.382;9.708;2022-11-20T08:15:32;2.30;99.90
60860;DHT22;46694;54.382;9.708;2022-11-20T08:18:12;2.30;99.90
60860;DHT22;46694;54.382;9.708;2022-11-20T08:20:52;2.30;99.90
60860;DHT22;46694;54.382;9.708;2022-11-20T08:23:31;2.30;99.90
60860;DHT22;46694;54.382;9.708;2022-11-20T08:26:11;2.30;99.90
60860;DHT22;46694;54.382;9.708;2022-11-20T08:28:57;2.30;99.90
60860;DHT22;46694;54.382;9.708;2022-11-20T08:31:37;2.30;99.90
60860;DHT22;46694;54.382;9.708;2022-11-20T08:34:16;2.30;99.90
60860;DHT22;46694;54.382;9.708;2022-11-20T08:36:56;2.30;99.90
60860;DHT22;46694;54.382;9.708;2022-11-20T08:39:36;2.40;99.90
60860;DHT22;46694;54.382;9.708;2022-11-20T08:42:16;2.40;99.90
60860;DHT22;46694;54.382;9.708;2022-11-20T08:44:55;2.40;99.90
60860;DHT22;46694;54.382;9.708;2022-11-20T08:47:35;2.40;99.90
60860;DHT22;46694;54.382;9.708;2022-11-20T08:50:15;2.40;99.90
60860;DHT22;46694;54.382;9.708;2022-11-20T08:53:01;2.50;99.90
60860;DHT22;46694;54.382;9.708;2022-11-20T08:55:43;2.50;99.90
60860;DHT22;46694;54.382;9.708;2022-11-20T08:58:23;2.50;99.90
60860;DHT22;46694;54.382;9.708;2022-11-20T09:01:03;2.50;99.90
60860;DHT22;46694;54.382;9.708;2022-11-20T09:03:42;2.60;99.90
60860;DHT22;46694;54.382;9.708;2022-11-20T09:06:22;2.50;99.90
60860;DHT22;46694;54.382;9.708;2022-11-20T09:09:02;2.50;99.90
60860;DHT22;46694;54.382;9.708;2022-11-20T09:11:42;2.50;99.90
60860;DHT22;46694;54.382;9.708;2022-11-20T09:14:21;2.50;99.90
60860;DHT22;46694;54.382;9.708;2022-11-20T09:17:00;2.40;99.90
60860;DHT22;46694;54.382;9.708;2022-11-20T09:19:41;2.40;99.90
60860;DHT22;46694;54.382;9.708;2022-11-20T09:22:20;2.50;99.90
60860;DHT22;46694;54.382;9.708;2022-11-20T09:25:00;2.50;99.90
60860;DHT22;46694;54.382;9.708;2022-11-20T09:27:39;2.70;99.90
60860;DHT22;46694;54.382;9.708;2022-11-20T09:30:22;3.10;99.90
60860;DHT22;46694;54.382;9.708;2022-11-20T09:33:04;3.40;99.90
60860;DHT22;46694;54.382;9.708;2022-11-20T09:35:45;3.60;99.90
60860;DHT22;46694;54.382;9.708;2022-11-20T09:38:24;3.70;99.90
60860;DHT22;46694;54.382;9.708;2022-11-20T09:41:06;4.00;99.90
60860;DHT22;46694;54.382;9.708;2022-11-20T09:46:53;4.50;99.90
60860;DHT22;46694;54.382;9.708;2022-11-20T09:56:02;4.80;99.90
60860;DHT22;46694;54.382;9.708;2022-11-20T09:58:45;4.70;99.90
60860;DHT22;46694;54.382;9.708;2022-11-20T10:01:30;4.50;99.90
60860;DHT22;46694;54.382;9.708;2022-11-20T10:04:19;4.40;99.90
60860;DHT22;46694;54.382;9.708;2022-11-20T10:07:20;4.40;99.90
60860;DHT22;46694;54.382;9.708;2022-11-20T10:11:04;4.40;99.90
60860;DHT22;46694;54.382;9.708;2022-11-20T10:16:53;4.20;99.90
60860;DHT22;46694;54.382;9.708;2022-11-20T10:23:21;4.50;99.90
60860;DHT22;46694;54.382;9.708;2022-11-20T10:26:21;4.60;99.90
60860;DHT22;46694;54.382;9.708;2022-11-20T10:29:16;4.80;99.90
60860;DHT22;46694;54.382;9.708;2022-11-20T10:32:02;4.90;99.90
60860;DHT22;46694;54.382;9.708;2022-11-20T10:35:18;5.00;99.90
60860;DHT22;46694;54.382;9.708;2022-11-20T10:38:07;5.10;99.90
60860;DHT22;46694;54.382;9.708;2022-11-20T10:40:57;5.20;99.90
60860;DHT22;46694;54.382;9.708;2022-11-20T10:44:26;5.00;99.90
60860;DHT22;46694;54.382;9.708;2022-11-20T10:47:25;4.90;99.90
60860;DHT22;46694;54.382;9.708;2022-11-20T10:50:11;4.90;99.90
60860;DHT22;46694;54.382;9.708;2022-11-20T10:55:53;4.90;99.90
60860;DHT22;46694;54.382;9.708;2022-11-20T11:01:44;5.00;99.90
60860;DHT22;46694;54.382;9.708;2022-11-20T11:07:26;5.20;99.90
60860;DHT22;46694;54.382;9.708;2022-11-20T11:10:24;5.20;99.90
60860;DHT22;46694;54.382;9.708;2022-11-20T11:13:07;5.10;99.90
60860;DHT22;46694;54.382;9.708;2022-11-20T11:15:58;5.10;99.90
60860;DHT22;46694;54.382;9.708;2022-11-20T11:18:37;5.10;99.90
60860;DHT22;46694;54.382;9.708;2022-11-20T11:21:23;5.00;99.90
60860;DHT22;46694;54.382;9.708;2022-11-20T11:24:04;5.00;99.90
60860;DHT22;46694;54.382;9.708;2022-11-20T11:27:00;5.10;99.90
60860;DHT22;46694;54.382;9.708;2022-11-20T11:29:46;5.10;99.90
60860;DHT22;46694;54.382;9.708;2022-11-20T11:32:26;5.10;99.90
60860;DHT22;46694;54.382;9.708;2022-11-20T11:35:27;5.20;99.90
60860;DHT22;46694;54.382;9.708;2022-11-20T11:38:14;5.20;99.90
60860;DHT22;46694;54.382;9.708;2022-11-20T11:44:24;5.20;99.90
60860;DHT22;46694;54.382;9.708;2022-11-20T11:47:29;5.20;99.90
60860;DHT22;46694;54.382;9.708;2022-11-20T11:50:20;5.20;99.90
60860;DHT22;46694;54.382;9.708;2022-11-20T11:53:19;5.20;99.90
60860;DHT22;46694;54.382;9.708;2022-11-20T11:56:08;5.20;99.90
60860;DHT22;46694;54.382;9.708;2022-11-20T11:58:52;5.20;99.90
60860;DHT22;46694;54.382;9.708;2022-11-20T12:01:54;5.20;99.90
60860;DHT22;46694;54.382;9.708;2022-11-20T12:05:05;5.20;99.90
60860;DHT22;46694;54.382;9.708;2022-11-20T12:11:36;5.00;99.90
60860;DHT22;46694;54.382;9.708;2022-11-20T12:14:38;4.80;99.90
60860;DHT22;46694;54.382;9.708;2022-11-20T12:17:20;4.70;99.90
60860;DHT22;46694;54.382;9.708;2022-11-20T12:19:59;4.70;99.90
60860;DHT22;46694;54.382;9.708;2022-11-20T12:39:41;4.50;99.90
60860;DHT22;46694;54.382;9.708;2022-11-20T12:43:01;4.50;99.90
60860;DHT22;46694;54.382;9.708;2022-11-20T12:52:53;4.30;99.90
60860;DHT22;46694;54.382;9.708;2022-11-20T13:07:55;3.80;99.90
60860;DHT22;46694;54.382;9.708;2022-11-20T13:19:21;3.60;99.90
60860;DHT22;46694;54.382;9.708;2022-11-20T13:22:01;3.60;99.90
60860;DHT22;46694;54.382;9.708;2022-11-20T13:24:50;3.80;99.90
60860;DHT22;46694;54.382;9.708;2022-11-20T13:27:32;3.80;99.90
60860;DHT22;46694;54.382;9.708;2022-11-20T13:30:15;3.90;99.90
60860;DHT22;46694;54.382;9.708;2022-11-20T13:33:03;3.80;99.90
60860;DHT22;46694;54.382;9.708;2022-11-20T13:36:27;3.80;99.90
60860;DHT22;46694;54.382;9.708;2022-11-20T13:39:08;3.80;99.90
60860;DHT22;46694;54.382;9.708;2022-11-20T13:41:54;3.80;99.90
60860;DHT22;46694;54.382;9.708;2022-11-20T13:44:43;3.80;99.90
60860;DHT22;46694;54.382;9.708;2022-11-20T13:47:27;3.70;99.90
60860;DHT22;46694;54.382;9.708;2022-11-20T13:50:14;3.70;99.90
60860;DHT22;46694;54.382;9.708;2022-11-20T13:53:08;3.80;99.90
60860;DHT22;46694;54.382;9.708;2022-11-20T13:56:01;3.70;99.90
60860;DHT22;46694;54.382;9.708;2022-11-20T14:02:17;3.70;99.90
60860;DHT22;46694;54.382;9.708;2022-11-20T14:04:59;3.60;99.90
60860;DHT22;46694;54.382;9.708;2022-11-20T14:07:41;3.50;99.90
60860;DHT22;46694;54.382;9.708;2022-11-20T14:10:27;3.50;99.90
60860;DHT22;46694;54.382;9.708;2022-11-20T14:13:17;3.40;99.90
60860;DHT22;46694;54.382;9.708;2022-11-20T14:15:57;3.40;99.90
60860;DHT22;46694;54.382;9.708;2022-11-20T14:18:38;3.30;99.90
60860;DHT22;46694;54.382;9.708;2022-11-20T14:21:29;3.30;99.90
60860;DHT22;46694;54.382;9.708;2022-11-20T14:24:11;3.30;99.90
60860;DHT22;46694;54.382;9.708;2022-11-20T14:26:51;3.20;99.90
60860;DHT22;46694;54.382;9.708;2022-11-20T14:29:36;3.20;99.90
60860;DHT22;46694;54.382;9.708;2022-11-20T14:32:22;3.20;99.90
60860;DHT22;46694;54.382;9.708;2022-11-20T14:35:08;3.10;99.90
60860;DHT22;46694;54.382;9.708;2022-11-20T14:37:49;3.10;99.90
60860;DHT22;46694;54.382;9.708;2022-11-20T14:40:34;3.10;99.90
60860;DHT22;46694;54.382;9.708;2022-11-20T14:46:08;3.00;99.90
60860;DHT22;46694;54.382;9.708;2022-11-20T14:48:55;3.00;99.90
60860;DHT22;46694;54.382;9.708;2022-11-20T14:51:40;2.90;99.90
60860;DHT22;46694;54.382;9.708;2022-11-20T14:54:23;2.90;99.90
60860;DHT22;46694;54.382;9.708;2022-11-20T14:57:05;2.80;99.90
60860;DHT22;46694;54.382;9.708;2022-11-20T14:59:44;2.70;99.90
60860;DHT22;46694;54.382;9.708;2022-11-20T15:02:24;2.70;99.90
60860;DHT22;46694;54.382;9.708;2022-11-20T15:05:04;2.70;99.90
60860;DHT22;46694;54.382;9.708;2022-11-20T15:07:46;2.70;99.90
60860;DHT22;46694;54.382;9.708;2022-11-20T15:10:27;2.70;99.90
60860;DHT22;46694;54.382;9.708;2022-11-20T15:13:32;2.60;99.90
60860;DHT22;46694;54.382;9.708;2022-11-20T15:16:21;2.60;99.90
60860;DHT22;46694;54.382;9.708;2022-11-20T15:19:03;2.60;99.90
60860;DHT22;46694;54.382;9.708;2022-11-20T15:21:51;2.60;99.90
60860;DHT22;46694;54.382;9.708;2022-11-20T15:24:31;2.50;99.90
60860;DHT22;46694;54.382;9.708;2022-11-20T15:27:11;2.50;99.90
60860;DHT22;46694;54.382;9.708;2022-11-20T15:29:51;2.40;99.90
60860;DHT22;46694;54.382;9.708;2022-11-20T15:32:30;2.40;99.90
60860;DHT22;46694;54.382;9.708;2022-11-20T15:35:11;2.30;99.90
60860;DHT22;46694;54.382;9.708;2022-11-20T15:37:51;2.30;99.90
60860;DHT22;46694;54.382;9.708;2022-11-20T15:40:31;2.30;99.90
60860;DHT22;46694;54.382;9.708;2022-11-20T15:43:16;2.20;99.90
60860;DHT22;46694;54.382;9.708;2022-11-20T15:46:13;2.10;99.90
60860;DHT22;46694;54.382;9.708;2022-11-20T15:48:56;2.10;99.90
60860;DHT22;46694;54.382;9.708;2022-11-20T15:51:37;2.10;99.90
60860;DHT22;46694;54.382;9.708;2022-11-20T15:54:20;2.10;99.90
60860;DHT22;46694;54.382;9.708;2022-11-20T15:57:00;2.00;99.90
60860;DHT22;46694;54.382;9.708;2022-11-20T15:59:41;2.00;99.90
60860;DHT22;46694;54.382;9.708;2022-11-20T16:02:21;2.00;99.90
60860;DHT22;46694;54.382;9.708;2022-11-20T16:05:01;1.90;99.90
60860;DHT22;46694;54.382;9.708;2022-11-20T16:07:40;1.90;99.90
60860;DHT22;46694;54.382;9.708;2022-11-20T16:10:20;1.90;99.90
60860;DHT22;46694;54.382;9.708;2022-11-20T16:13:00;1.80;99.90
60860;DHT22;46694;54.382;9.708;2022-11-20T16:16:01;1.80;99.90
60860;DHT22;46694;54.382;9.708;2022-11-20T16:18:44;1.80;99.90
60860;DHT22;46694;54.382;9.708;2022-11-20T16:21:24;1.70;99.90
60860;DHT22;46694;54.382;9.708;2022-11-20T16:24:12;1.70;99.90
60860;DHT22;46694;54.382;9.708;2022-11-20T16:26:53;1.70;99.90
60860;DHT22;46694;54.382;9.708;2022-11-20T16:29:33;1.70;99.90
60860;DHT22;46694;54.382;9.708;2022-11-20T16:32:13;1.60;99.90
60860;DHT22;46694;54.382;9.708;2022-11-20T16:34:53;1.60;99.90
60860;DHT22;46694;54.382;9.708;2022-11-20T16:41:09;1.50;99.90
60860;DHT22;46694;54.382;9.708;2022-11-20T16:43:54;1.40;99.90
60860;DHT22;46694;54.382;9.708;2022-11-20T16:46:38;1.40;99.90
60860;DHT22;46694;54.382;9.708;2022-11-20T16:49:18;1.40;99.90
60860;DHT22;46694;54.382;9.708;2022-11-20T16:51:58;1.30;99.90
60860;DHT22;46694;54.382;9.708;2022-11-20T16:54:38;1.30;99.90
60860;DHT22;46694;54.382;9.708;2022-11-20T16:57:18;1.30;99.90
60860;DHT22;46694;54.382;9.708;2022-11-20T16:59:58;1.20;99.90
60860;DHT22;46694;54.382;9.708;2022-11-20T17:02:38;1.20;99.90
60860;DHT22;46694;54.382;9.708;2022-11-20T17:05:18;1.20;99.90
60860;DHT22;46694;54.382;9.708;2022-11-20T17:07:57;1.20;99.90
60860;DHT22;46694;54.382;9.708;2022-11-20T17:10:37;1.20;99.90
60860;DHT22;46694;54.382;9.708;2022-11-20T17:13:16;1.20;99.90
60860;DHT22;46694;54.382;9.708;2022-11-20T17:16:00;1.10;99.90
60860;DHT22;46694;54.382;9.708;2022-11-20T17:18:44;1.10;99.90
60860;DHT22;46694;54.382;9.708;2022-11-20T17:21:24;1.10;99.90
60860;DHT22;46694;54.382;9.708;2022-11-20T17:24:09;1.10;99.90
60860;DHT22;46694;54.382;9.708;2022-11-20T17:26:49;1.10;99.90
60860;DHT22;46694;54.382;9.708;2022-11-20T17:29:29;1.00;99.90
60860;DHT22;46694;54.382;9.708;2022-11-20T17:32:09;1.00;99.90
60860;DHT22;46694;54.382;9.708;2022-11-20T17:34:48;1.00;99.90
60860;DHT22;46694;54.382;9.708;2022-11-20T17:37:31;0.90;99.90
60860;DHT22;46694;54.382;9.708;2022-11-20T17:40:11;0.90;99.90
60860;DHT22;46694;54.382;9.708;2022-11-20T17:42:50;0.90;99.90
60860;DHT22;46694;54.382;9.708;2022-11-20T17:45:30;0.90;99.90
60860;DHT22;46694;54.382;9.708;2022-11-20T17:48:10;0.90;99.90
60860;DHT22;46694;54.382;9.708;2022-11-20T17:50:50;0.80;99.90
60860;DHT22;46694;54.382;9.708;2022-11-20T17:53:35;0.80;99.90
60860;DHT22;46694;54.382;9.708;2022-11-20T17:56:16;0.80;99.90
60860;DHT22;46694;54.382;9.708;2022-11-20T17:59:15;0.80;99.90
60860;DHT22;46694;54.382;9.708;2022-11-20T18:01:54;0.80;99.90
60860;DHT22;46694;54.382;9.708;2022-11-20T18:04:34;0.80;99.90
60860;DHT22;46694;54.382;9.708;2022-11-20T18:07:13;0.70;99.90
60860;DHT22;46694;54.382;9.708;2022-11-20T18:09:53;0.70;99.90
60860;DHT22;46694;54.382;9.708;2022-11-20T18:12:33;0.70;99.90
60860;DHT22;46694;54.382;9.708;2022-11-20T18:15:12;0.70;99.90
60860;DHT22;46694;54.382;9.708;2022-11-20T18:17:52;0.70;99.90
60860;DHT22;46694;54.382;9.708;2022-11-20T18:20:31;0.70;99.90
60860;DHT22;46694;54.382;9.708;2022-11-20T18:23:11;0.60;99.90
60860;DHT22;46694;54.382;9.708;2022-11-20T18:25:51;0.60;99.90
60860;DHT22;46694;54.382;9.708;2022-11-20T18:28:30;0.60;99.90
60860;DHT22;46694;54.382;9.708;2022-11-20T18:31:10;0.60;99.90
60860;DHT22;46694;54.382;9.708;2022-11-20T18:33:51;0.60;99.90
60860;DHT22;46694;54.382;9.708;2022-11-20T18:36:32;0.60;99.90
60860;DHT22;46694;54.382;9.708;2022-11-20T18:39:13;0.50;99.90
60860;DHT22;46694;54.382;9.708;2022-11-20T18:41:53;0.50;99.90
60860;DHT22;46694;54.382;9.708;2022-11-20T18:44:51;0.50;99.90
60860;DHT22;46694;54.382;9.708;2022-11-20T18:47:34;0.40;99.90
60860;DHT22;46694;54.382;9.708;2022-11-20T18:50:16;0.40;99.90
60860;DHT22;46694;54.382;9.708;2022-11-20T18:52:56;0.40;99.90
60860;DHT22;46694;54.382;9.708;2022-11-20T18:55:36;0.40;99.90